Lorraine — A8IZ3 — position and weather

sailwx.info

Track history (hours):
 
Tides and Currents Weather Stations Pressure Air Temp Water Temp Dewpoint Dewpoint Depression Visibility Wind Speed Wind Dir Waves Ship Positions

Lorraine

Last reported at 2017-Jan-09 22:28 UTC. Time now 2017-Jan-22 01:50 UTC.
Position N 38°35' E 122°09'.
Warning: this ship's position is 12 days out of date.

Length 221 m; draft 9.4 m.

Type: Ship. MMSI: 636012905.

Date/timePositionNaut miles runAvg speedWind from/ knotsBaromVisibWave heightAir tempDewpointWater temp
2017-Jan-09 22:28N 38°35' E 122°09'1414.9
2017-Jan-09 21:33N 38°46' E 121°60'8 0.5
2017-Jan-09 07:33N 38°54' E 121°56'2 1.7
2017-Jan-09 06:33N 38°52' E 121°56'2 2.4
2017-Jan-09 05:33N 38°50' E 121°54'1514.7
2017-Jan-09 04:34N 38°37' E 121°47'3014.9
2017-Jan-09 02:33N 38°29' E 121°10'1515.4
2017-Jan-09 01:33N 38°34' E 120°51'1615.2
2017-Jan-09 00:31N 38°35' E 120°31'4 0.1
2017-Jan-07 10:17N 38°39' E 120°32'911.6
2017-Jan-07 09:33N 38°38' E 120°43'1111.2
2017-Jan-07 08:33N 38°35' E 120°57'1010.5
2017-Jan-07 07:33N 38°30' E 121°09'45 2.5
2017-Jan-06 13:30N 38°17' E 122°04'3411.1
2017-Jan-06 10:28N 37°54' E 122°34'1310.7
2017-Jan-06 09:16N 37°45' E 122°47'  
Track history (hours):
 
Tides and Currents Weather Stations Pressure Air Temp Water Temp Dewpoint Dewpoint Depression Visibility Wind Speed Wind Dir Waves Ship Positions

Lorraine

Last reported at 2017-Jan-09 22:28 UTC. Time now 2017-Jan-22 01:50 UTC.
Position N 38°35' E 122°09'.
Warning: this ship's position is 12 days out of date.

Length 221 m; draft 9.4 m.

Type: Ship. MMSI: 636012905.

Date/timePositionNaut miles runAvg speedWind from/ knotsBaromVisibWave heightAir tempDewpointWater temp
2017-Jan-09 22:28N 38°35' E 122°09'1414.9
2017-Jan-09 21:33N 38°46' E 121°60'8 0.5
2017-Jan-09 07:33N 38°54' E 121°56'2 1.7
2017-Jan-09 06:33N 38°52' E 121°56'2 2.4
2017-Jan-09 05:33N 38°50' E 121°54'1514.7
2017-Jan-09 04:34N 38°37' E 121°47'3014.9
2017-Jan-09 02:33N 38°29' E 121°10'1515.4
2017-Jan-09 01:33N 38°34' E 120°51'1615.2
2017-Jan-09 00:31N 38°35' E 120°31'4 0.1
2017-Jan-07 10:17N 38°39' E 120°32'911.6
2017-Jan-07 09:33N 38°38' E 120°43'1111.2
2017-Jan-07 08:33N 38°35' E 120°57'1010.5
2017-Jan-07 07:33N 38°30' E 121°09'45 2.5
2017-Jan-06 13:30N 38°17' E 122°04'3411.1
2017-Jan-06 10:28N 37°54' E 122°34'1310.7
2017-Jan-06 09:16N 37°45' E 122°47'  

Dump ship's entire track history